Time;durP1;ratioP1;P1;durP2;ratioP2;P2;SDS_P1;SDS_P2;PMS_P1;PMS_P2;Temp;Humidity;BMP_temperature;BMP_pressure;BME280_temperature;BME280_humidity;BME280_pressure;Samples;Min_cycle;Max_cycle;Signal;HPM_P1;HPM_P2
2022/09/01 00:01:52;;;;;;;1.58;1.00;;;;;;;16.94;51.70;101975.78;5074651;28;20065;-88
2022/09/01 00:04:32;;;;;;;0.80;0.80;;;;;;;16.92;52.02;101975.81;5073860;28;20110;-88
2022/09/01 00:07:06;;;;;;;0.73;0.60;;;;;;;16.91;51.65;101970.56;5074844;28;20021;-88
2022/09/01 00:09:31;;;;;;;0.88;0.88;;;;;;;16.88;51.99;101974.13;5074859;28;20024;-88
2022/09/01 00:11:57;;;;;;;0.77;0.77;;;;;;;16.86;52.42;101969.84;5073595;28;20174;-88
2022/09/01 00:14:25;;;;;;;0.70;0.70;;;;;;;16.83;52.70;101973.41;5074546;28;20052;-88
2022/09/01 00:16:51;;;;;;;1.00;0.93;;;;;;;16.81;52.32;101972.56;5074508;28;20036;-88
2022/09/01 00:19:16;;;;;;;0.70;0.60;;;;;;;16.79;53.34;101969.97;5073564;28;20013;-87
2022/09/01 00:21:43;;;;;;;1.20;1.10;;;;;;;16.66;54.39;101977.25;5074256;28;20033;-87
2022/09/01 00:24:11;;;;;;;1.30;1.17;;;;;;;16.66;53.45;101972.03;5074140;28;20078;-87
2022/09/01 00:26:36;;;;;;;1.52;1.25;;;;;;;16.59;53.88;101970.44;5072982;28;20040;-88
2022/09/01 00:29:02;;;;;;;1.10;1.10;;;;;;;16.53;55.06;101970.56;5073507;28;20020;-87
2022/09/01 00:31:27;;;;;;;2.97;1.60;;;;;;;16.47;55.12;101970.72;5073217;28;20368;-87
2022/09/01 00:33:53;;;;;;;2.20;1.37;;;;;;;16.44;54.76;101976.88;5073935;28;20032;-88
2022/09/01 00:36:19;;;;;;;1.80;1.30;;;;;;;16.44;55.80;101982.09;5074268;28;20027;-87
2022/09/01 00:38:45;;;;;;;1.20;1.10;;;;;;;16.43;55.34;101979.53;5073797;28;20036;-88
2022/09/01 00:41:10;;;;;;;2.37;1.70;;;;;;;16.35;56.50;101969.22;5073604;28;20032;-88
2022/09/01 00:43:43;;;;;;;1.63;1.53;;;;;;;16.32;56.59;101972.78;5073695;28;20036;-89
2022/09/01 00:46:16;;;;;;;2.08;1.70;;;;;;;16.28;56.27;101973.72;5073341;28;20064;-88
2022/09/01 00:48:42;;;;;;;2.13;1.40;;;;;;;16.26;56.05;101970.28;5073807;28;20127;-88
2022/09/01 00:51:09;;;;;;;2.47;1.60;;;;;;;16.22;56.00;101968.63;5073296;28;20056;-88
2022/09/01 00:53:36;;;;;;;1.73;1.63;;;;;;;16.21;57.12;101969.50;5072997;28;20032;-88
2022/09/01 00:56:02;;;;;;;2.35;1.65;;;;;;;16.16;56.78;101972.22;5073317;28;20131;-87
2022/09/01 00:58:29;;;;;;;1.30;1.20;;;;;;;16.15;56.68;101967.03;5073734;28;20486;-87
2022/09/01 01:00:54;;;;;;;1.35;1.25;;;;;;;16.13;57.40;101969.66;5073071;28;20024;-87
2022/09/01 01:03:21;;;;;;;2.90;1.50;;;;;;;16.08;58.46;101974.16;5073747;28;20103;-87
2022/09/01 01:05:54;;;;;;;1.40;1.30;;;;;;;16.09;57.50;101973.25;5073546;28;20025;-87
2022/09/01 01:08:32;;;;;;;3.28;1.40;;;;;;;16.08;57.43;101968.03;5069204;28;20033;-88
2022/09/01 01:11:03;;;;;;;2.70;1.75;;;;;;;16.00;58.34;101966.44;5073342;28;20031;-88
2022/09/01 01:13:34;;;;;;;3.35;1.70;;;;;;;15.96;58.48;101956.06;5073439;28;20048;-88
2022/09/01 01:16:00;;;;;;;3.35;1.60;;;;;;;15.93;59.27;101962.22;5072860;28;20032;-88
2022/09/01 01:18:26;;;;;;;1.35;1.25;;;;;;;15.90;58.70;101957.91;5073494;28;20024;-88
2022/09/01 01:24:26;;;;;;;2.65;1.70;;;;;;;15.82;59.02;101961.56;5073503;28;20044;-87
2022/09/01 01:26:57;;;;;;;1.52;1.42;;;;;;;15.79;60.18;101961.59;5073062;28;20066;-88
2022/09/01 01:29:23;;;;;;;1.67;1.25;;;;;;;15.78;59.07;101963.34;5072484;28;20106;-88
2022/09/01 01:31:52;;;;;;;1.20;1.10;;;;;;;15.78;58.75;101959.88;5073001;28;20079;-87
2022/09/01 01:34:18;;;;;;;1.70;1.23;;;;;;;15.73;58.63;101952.97;5073172;28;20450;-89
2022/09/01 01:36:44;;;;;;;2.38;1.40;;;;;;;15.73;59.91;101959.97;5071701;28;20040;-88
2022/09/01 01:39:13;;;;;;;1.43;1.33;;;;;;;15.69;60.42;101959.16;5072934;28;20381;-88
2022/09/01 01:41:44;;;;;;;1.40;1.30;;;;;;;15.66;59.28;101958.34;5072753;28;20027;-87
2022/09/01 01:44:10;;;;;;;1.50;1.40;;;;;;;15.60;60.08;101957.56;5072588;28;20032;-87
2022/09/01 01:46:41;;;;;;;1.85;1.50;;;;;;;15.57;60.90;101955.00;5073204;28;20063;-87
2022/09/01 01:49:08;;;;;;;2.47;1.80;;;;;;;15.47;61.94;101965.69;5071829;28;20127;-87
2022/09/01 01:51:33;;;;;;;2.20;2.00;;;;;;;15.44;61.58;101961.34;5072273;28;20036;-87
2022/09/01 01:54:04;;;;;;;3.38;2.03;;;;;;;15.43;60.75;101972.69;5072270;28;20031;-87
2022/09/01 01:56:30;;;;;;;3.17;2.00;;;;;;;15.39;61.30;101971.03;5072217;28;20025;-87
2022/09/01 01:58:56;;;;;;;2.23;1.90;;;;;;;15.36;61.45;101974.59;5072528;28;20035;-87
2022/09/01 02:01:24;;;;;;;3.15;2.10;;;;;;;15.32;61.25;101970.28;5072895;28;20025;-87
2022/09/01 02:03:51;;;;;;;2.40;1.60;;;;;;;15.34;61.10;101968.50;5072592;28;20024;-89
2022/09/01 02:06:18;;;;;;;1.40;1.30;;;;;;;15.36;61.60;101966.75;5073447;28;20024;-89
2022/09/01 02:08:44;;;;;;;0.98;0.98;;;;;;;15.38;61.09;101967.56;5072941;28;20024;-88
2022/09/01 02:11:09;;;;;;;2.00;1.80;;;;;;;15.35;61.83;101964.13;5072294;28;20119;-88
2022/09/01 02:13:35;;;;;;;4.33;1.97;;;;;;;15.29;61.49;101959.88;5073146;28;20028;-89
2022/09/01 02:16:06;;;;;;;1.80;1.70;;;;;;;15.31;61.48;101965.09;5072823;28;20035;-88
2022/09/01 02:18:37;;;;;;;1.92;1.73;;;;;;;15.31;61.42;101962.47;5072162;28;20025;-89
2022/09/01 02:21:09;;;;;;;1.30;1.20;;;;;;;15.31;62.01;101967.72;5072988;28;20032;-89
2022/09/01 02:23:37;;;;;;;1.33;1.20;;;;;;;15.34;60.51;101967.63;5073392;28;20040;-89
2022/09/01 02:26:05;;;;;;;1.23;1.20;;;;;;;15.32;61.61;101965.06;5072061;28;20536;-89
2022/09/01 02:28:35;;;;;;;2.97;2.00;;;;;;;15.26;61.46;101968.63;5073204;28;20035;-89
2022/09/01 02:31:02;;;;;;;1.50;1.40;;;;;;;15.23;61.64;101967.84;5072217;28;20020;-88
2022/09/01 02:33:29;;;;;;;1.52;1.42;;;;;;;15.22;62.37;101964.34;5073059;28;20082;-88
2022/09/01 02:35:58;;;;;;;3.08;2.08;;;;;;;15.13;63.29;101964.50;5072317;28;20028;-88
2022/09/01 02:38:28;;;;;;;2.10;1.90;;;;;;;15.12;62.25;101962.78;5071943;28;20028;-89
2022/09/01 02:40:57;;;;;;;1.52;1.40;;;;;;;15.11;61.74;101967.16;5072903;28;20041;-90
2022/09/01 02:43:27;;;;;;;1.13;1.10;;;;;;;15.12;61.67;101965.38;5073007;28;20040;-89
2022/09/01 02:45:54;;;;;;;1.05;1.00;;;;;;;15.13;61.86;101967.13;5072086;28;20397;-89
2022/09/01 02:48:23;;;;;;;1.20;1.10;;;;;;;15.11;61.50;101964.53;5072609;28;20044;-89
2022/09/01 02:50:48;;;;;;;3.40;2.00;;;;;;;15.06;63.43;101960.28;5075988;28;20029;-89
2022/09/01 02:53:14;;;;;;;2.60;1.33;;;;;;;15.04;62.55;101957.66;5075832;28;20032;-88
2022/09/01 02:55:39;;;;;;;2.27;1.80;;;;;;;15.00;62.05;101960.34;5076256;28;20511;-88
2022/09/01 02:58:09;;;;;;;1.70;1.60;;;;;;;14.97;63.32;101951.66;5076181;28;20026;-89
2022/09/01 03:00:36;;;;;;;2.22;1.70;;;;;;;14.88;64.30;101959.66;5076120;28;20033;-88
2022/09/01 03:03:02;;;;;;;2.22;1.88;;;;;;;14.81;64.44;101944.97;5076073;28;20020;-89
2022/09/01 03:05:31;;;;;;;2.33;1.90;;;;;;;14.76;64.36;101946.78;5075960;28;20366;-88
2022/09/01 03:08:00;;;;;;;1.90;1.80;;;;;;;14.73;64.50;101950.31;5075518;28;20067;-88
2022/09/01 03:10:38;;;;;;;2.33;2.05;;;;;;;14.69;64.50;101945.16;5076000;28;20095;-89
2022/09/01 03:13:07;;;;;;;2.03;1.83;;;;;;;14.66;64.35;101946.88;5075898;28;20078;-89
2022/09/01 03:15:35;;;;;;;2.10;1.90;;;;;;;14.66;64.30;101953.88;5075789;28;20036;-89
2022/09/01 03:18:01;;;;;;;1.83;1.73;;;;;;;14.64;64.84;101948.66;5076003;28;20372;-88
2022/09/01 03:20:29;;;;;;;2.97;2.20;;;;;;;14.59;64.52;101947.00;5075511;28;20132;-89
2022/09/01 03:22:56;;;;;;;3.85;2.30;;;;;;;14.50;65.10;101942.78;5075766;28;20103;-89
2022/09/01 03:25:23;;;;;;;2.65;2.10;;;;;;;14.51;64.10;101939.28;5076030;28;20024;-90
2022/09/01 03:27:50;;;;;;;2.75;1.70;;;;;;;14.50;64.68;101942.78;5075178;28;20094;-89
2022/09/01 03:30:16;;;;;;;2.75;1.83;;;;;;;14.50;64.39;101942.78;5075956;28;20028;-89
2022/09/01 03:32:41;;;;;;;2.37;1.70;;;;;;;14.49;64.44;101947.13;5076266;28;20041;-91
2022/09/01 03:35:08;;;;;;;1.53;1.30;;;;;;;14.51;63.67;101941.91;5076095;28;20068;-88
2022/09/01 03:37:33;;;;;;;2.22;2.00;;;;;;;14.45;65.48;101939.34;5075914;28;20021;-89
2022/09/01 03:39:58;;;;;;;2.10;1.87;;;;;;;14.43;64.31;101944.63;5075270;28;20465;-89
2022/09/01 03:42:28;;;;;;;2.20;2.00;;;;;;;14.39;65.14;101942.06;5074919;28;20514;-90
2022/09/01 03:44:55;;;;;;;2.00;1.80;;;;;;;14.36;65.09;101949.06;5075232;28;20020;-90
2022/09/01 03:47:21;;;;;;;2.20;2.00;;;;;;;14.30;65.77;101946.50;5075109;28;20035;-89
2022/09/01 03:49:48;;;;;;;2.00;1.80;;;;;;;14.28;64.86;101950.03;5075404;28;20028;-90
2022/09/01 03:52:14;;;;;;;1.40;1.30;;;;;;;14.29;64.11;101938.72;5075555;28;20066;-89
2022/09/01 03:54:40;;;;;;;1.38;1.20;;;;;;;14.28;65.70;101940.47;5075176;28;20020;-89
2022/09/01 03:57:08;;;;;;;2.50;1.70;;;;;;;14.22;64.81;101948.38;5074563;28;20013;-90
2022/09/01 03:59:44;;;;;;;2.25;2.03;;;;;;;14.20;65.99;101944.91;5074958;28;20074;-88
2022/09/01 04:02:17;;;;;;;2.08;1.70;;;;;;;14.16;65.83;101943.25;5080957;28;20029;-89
2022/09/01 04:04:43;;;;;;;2.75;2.05;;;;;;;14.12;66.03;101944.16;5074941;28;20017;-90
2022/09/01 04:07:08;;;;;;;2.20;2.00;;;;;;;14.04;67.06;101945.13;5074640;28;20033;-88
2022/09/01 04:09:43;;;;;;;3.43;2.30;;;;;;;14.01;66.29;101939.06;5074239;28;20048;-89
2022/09/01 04:12:08;;;;;;;3.00;2.00;;;;;;;14.01;66.06;101934.69;5074882;28;20576;-90
2022/09/01 04:14:34;;;;;;;2.03;1.57;;;;;;;14.00;65.62;101937.34;5074977;28;20020;-89
2022/09/01 04:19:43;;;;;;;2.22;1.70;;;;;;;13.99;66.40;101936.47;5075400;28;20089;-89
2022/09/01 04:22:12;;;;;;;1.87;1.70;;;;;;;13.98;65.18;101939.94;5074183;28;20097;-90
2022/09/01 04:24:44;;;;;;;1.70;1.60;;;;;;;13.97;66.00;101943.44;5074321;28;20020;-90
2022/09/01 04:27:09;;;;;;;3.20;2.03;;;;;;;13.92;66.75;101947.00;5074562;28;20032;-89
2022/09/01 04:29:35;;;;;;;2.20;2.00;;;;;;;13.87;65.20;101952.25;5075013;28;20028;-90
2022/09/01 04:32:05;;;;;;;1.70;1.52;;;;;;;13.90;65.42;101952.22;5073410;28;20081;-89
2022/09/01 04:34:36;;;;;;;1.95;1.75;;;;;;;13.88;65.24;101954.00;5074225;28;20040;-89
2022/09/01 04:37:16;;;;;;;2.47;1.90;;;;;;;13.86;65.62;101945.31;5074478;28;20032;-89
2022/09/01 04:39:48;;;;;;;1.58;1.40;;;;;;;13.84;66.28;101949.72;5073919;28;20028;-90
2022/09/01 04:42:15;;;;;;;1.60;1.50;;;;;;;13.84;65.14;101949.72;5074432;28;20540;-90
2022/09/01 04:44:42;;;;;;;1.48;1.38;;;;;;;13.78;66.14;101948.03;5073836;28;20127;-89
2022/09/01 04:47:09;;;;;;;2.30;1.90;;;;;;;13.72;66.66;101951.56;5073888;28;20031;-89
2022/09/01 04:49:36;;;;;;;2.03;1.83;;;;;;;13.73;65.69;101947.19;5074704;28;20044;-89
2022/09/01 04:52:02;;;;;;;2.00;1.80;;;;;;;13.71;65.46;101943.75;5073554;28;20111;-91
2022/09/01 04:54:27;;;;;;;1.70;1.60;;;;;;;13.71;65.30;101948.97;5074700;28;20063;-89
2022/09/01 04:56:53;;;;;;;3.03;1.83;;;;;;;13.69;66.28;101945.50;5073851;28;20032;-90
2022/09/01 04:59:21;;;;;;;1.90;1.80;;;;;;;13.70;65.36;101957.66;5073646;28;20032;-89
2022/09/01 05:01:49;;;;;;;3.35;2.10;;;;;;;13.64;66.57;101948.16;5076009;28;20084;-89
2022/09/01 05:04:21;;;;;;;1.63;1.52;;;;;;;13.64;65.56;101950.75;5074151;28;20020;-89
2022/09/01 05:06:49;;;;;;;3.15;2.00;;;;;;;13.62;66.21;101954.28;5073464;28;20054;-90
2022/09/01 05:09:17;;;;;;;2.10;1.90;;;;;;;13.61;65.97;101961.25;5073892;28;20021;-90
2022/09/01 05:11:44;;;;;;;1.50;1.40;;;;;;;13.62;65.38;101954.28;5073407;28;20055;-90
2022/09/01 05:14:11;;;;;;;1.70;1.60;;;;;;;13.64;66.35;101949.91;5073142;28;20025;-89
2022/09/01 05:16:36;;;;;;;;;;;;;;;13.61;66.44;101950.81;5074180;28;20039;-90
2022/09/01 05:19:02;;;;;;;2.43;1.80;;;;;;;13.60;65.58;101949.09;5073810;28;19916;-90
2022/09/01 05:21:28;;;;;;;2.30;2.10;;;;;;;13.58;66.32;101956.06;5073280;28;20385;-89
2022/09/01 05:23:59;;;;;;;3.47;2.22;;;;;;;13.51;67.03;101952.66;5073587;28;20365;-90
2022/09/01 05:26:28;;;;;;;2.63;1.90;;;;;;;13.50;66.71;101958.75;5073804;28;20021;-89
2022/09/01 05:28:57;;;;;;;3.38;2.28;;;;;;;13.48;66.97;101957.88;5072863;28;20021;-89
2022/09/01 05:31:26;;;;;;;3.20;2.08;;;;;;;13.48;66.75;101957.03;5073631;28;20480;-88
2022/09/01 05:33:53;;;;;;;3.75;2.20;;;;;;;13.47;66.06;101956.16;5071654;28;20572;-86
2022/09/01 05:36:21;;;;;;;2.05;1.90;;;;;;;13.52;65.61;101956.09;5072679;28;20078;-86
2022/09/01 05:38:48;;;;;;;1.67;1.58;;;;;;;13.54;65.56;101962.16;5072971;28;20021;-86
2022/09/01 05:41:15;;;;;;;4.43;2.10;;;;;;;13.53;67.01;101960.44;5072088;28;20392;-86
2022/09/01 05:43:45;;;;;;;2.72;2.08;;;;;;;13.51;65.64;101962.22;5072647;28;20035;-86
2022/09/01 05:46:10;;;;;;;2.92;2.10;;;;;;;13.51;66.02;101960.47;5072506;28;20040;-86
2022/09/01 05:48:38;;;;;;;4.33;2.30;;;;;;;13.54;66.16;101962.16;5072130;28;20078;-86
2022/09/01 05:51:05;;;;;;;2.63;2.10;;;;;;;13.54;66.63;101965.66;5072077;28;20017;-86
2022/09/01 05:53:32;;;;;;;2.60;2.40;;;;;;;13.54;65.83;101959.56;5072655;28;20025;-87
2022/09/01 05:55:58;;;;;;;3.05;1.80;;;;;;;13.57;65.93;101963.00;5071226;28;20530;-86
2022/09/01 05:58:26;;;;;;;7.40;2.90;;;;;;;13.54;66.89;101970.88;5072712;28;20021;-86
2022/09/01 06:00:57;;;;;;;5.05;2.40;;;;;;;13.59;66.03;101968.22;5072537;28;20104;-87
2022/09/01 06:03:23;;;;;;;3.55;2.33;;;;;;;13.64;66.51;101970.78;5071859;28;20028;-87
2022/09/01 06:05:51;;;;;;;3.47;2.38;;;;;;;13.68;66.06;101967.28;5078497;28;20036;-89
2022/09/01 06:08:22;;;;;;;2.95;2.22;;;;;;;13.71;66.49;101964.63;5074038;28;20028;-94
2022/09/01 06:10:49;;;;;;;4.72;2.47;;;;;;;13.74;66.14;101968.03;5073932;28;20094;-94
2022/09/01 06:13:16;;;;;;;3.08;2.20;;;;;;;13.78;65.92;101971.50;5074202;28;20028;-96
2022/09/01 06:15:43;;;;;;;6.78;2.70;;;;;;;13.82;66.20;101965.38;5075386;28;20028;-87
2022/09/01 06:18:11;;;;;;;4.20;2.80;;;;;;;13.86;66.40;101974.00;5072264;28;20477;-84
2022/09/01 06:20:45;;;;;;;4.32;2.60;;;;;;;13.85;66.22;101973.16;5072552;28;20028;-81
2022/09/01 06:23:13;;;;;;;3.10;2.47;;;;;;;13.93;65.74;101977.44;5072218;28;20024;-81
2022/09/01 06:25:44;;;;;;;4.00;2.70;;;;;;;13.97;66.10;101971.31;5076515;28;20021;-89
2022/09/01 06:28:11;;;;;;;4.30;2.90;;;;;;;14.01;65.69;101976.47;5078818;28;20413;-94
2022/09/01 06:30:37;;;;;;;4.28;2.80;;;;;;;14.11;65.68;101971.13;5077824;28;20024;-96
2022/09/01 06:33:04;;;;;;;3.83;2.70;;;;;;;14.19;65.95;101977.13;5077231;28;20028;-96
2022/09/01 06:35:31;;;;;;;6.28;2.90;;;;;;;14.29;65.08;101975.25;5077525;28;20045;-96
2022/09/01 06:37:57;;;;;;;5.65;2.90;;;;;;;14.34;64.92;101974.31;5075703;28;20033;-87
2022/09/01 06:40:24;;;;;;;5.30;3.00;;;;;;;14.40;64.31;101975.13;5076169;28;20023;-87
2022/09/01 06:42:51;;;;;;;4.07;2.50;;;;;;;14.47;64.86;101982.84;5075864;28;20082;-87
2022/09/01 06:45:19;;;;;;;2.95;2.30;;;;;;;14.51;64.38;101973.25;5075207;28;20055;-84
2022/09/01 06:47:50;;;;;;;3.58;2.40;;;;;;;14.56;64.67;101976.63;5075811;28;20099;-84
2022/09/01 06:50:20;;;;;;;2.80;2.35;;;;;;;14.64;64.79;101985.22;5075888;28;20032;-87
2022/09/01 06:52:48;;;;;;;4.30;2.40;;;;;;;14.72;64.96;101984.31;5075756;28;20070;-88
2022/09/01 06:55:15;;;;;;;5.20;2.75;;;;;;;14.80;64.16;101983.31;5076002;28;20017;-88
2022/09/01 06:57:44;;;;;;;2.30;2.10;;;;;;;14.88;64.60;101979.72;5075605;28;20473;-88
2022/09/01 07:00:19;;;;;;;3.00;2.20;;;;;;;15.00;63.68;101978.66;5075251;28;20025;-87
2022/09/01 07:02:53;;;;;;;5.53;2.60;;;;;;;15.16;63.10;101981.88;5075910;28;20484;-87
2022/09/01 07:05:20;;;;;;;5.20;2.60;;;;;;;16.04;62.86;101983.78;5075089;28;20021;-88
2022/09/01 07:07:50;;;;;;;2.35;1.88;;;;;;;18.41;61.26;101989.41;5076010;28;20025;-88
2022/09/01 07:10:21;;;;;;;5.88;2.20;;;;;;;21.11;49.24;101992.19;5076240;28;20122;-92
2022/09/01 07:12:47;;;;;;;5.25;2.30;;;;;;;22.28;45.57;101992.44;5075983;28;20029;-92
2022/09/01 07:15:16;;;;;;;3.00;1.98;;;;;;;23.41;46.24;101995.81;5076877;28;20488;-90
2022/09/01 07:17:48;;;;;;;1.80;1.70;;;;;;;24.29;44.69;102000.06;5076342;28;20038;-89
2022/09/01 07:20:14;;;;;;;3.05;1.90;;;;;;;24.50;39.68;101995.34;5075075;28;20534;-88
2022/09/01 07:22:40;;;;;;;2.65;2.00;;;;;;;23.56;44.64;101991.50;5076050;28;20028;-92
2022/09/01 07:25:06;;;;;;;2.45;2.00;;;;;;;22.45;44.45;101994.31;5075683;28;20031;-92
2022/09/01 07:27:32;;;;;;;3.08;2.17;;;;;;;21.06;45.30;101991.50;5075107;28;20400;-89
2022/09/01 07:29:57;;;;;;;4.50;2.47;;;;;;;19.94;48.23;101994.06;5075596;28;20029;-84
2022/09/01 07:32:22;;;;;;;4.80;2.33;;;;;;;19.48;50.45;101989.50;5062830;28;20068;-84
2022/09/01 07:34:48;;;;;;;4.23;2.10;;;;;;;18.99;51.33;101997.25;5066026;28;20087;-85
2022/09/01 07:37:14;;;;;;;2.43;1.87;;;;;;;18.73;52.65;101992.81;5062579;28;20079;-84
2022/09/01 07:39:45;;;;;;;2.73;2.10;;;;;;;18.58;53.34;101986.25;5073422;28;20548;-88
2022/09/01 07:42:10;;;;;;;3.92;2.20;;;;;;;18.41;53.90;101992.03;5070421;28;20032;-84
2022/09/01 07:44:37;;;;;;;2.43;2.10;;;;;;;18.33;54.22;101992.25;5054861;28;20071;-86
2022/09/01 07:47:07;;;;;;;3.15;2.30;;;;;;;18.28;54.56;101992.38;5054544;28;20021;-88
2022/09/01 07:49:32;;;;;;;3.80;2.20;;;;;;;18.27;54.49;102000.34;5053786;28;20108;-88
2022/09/01 07:52:00;;;;;;;5.30;2.43;;;;;;;18.34;54.59;101993.97;5069694;28;20107;-87
2022/09/01 07:54:26;;;;;;;3.63;2.33;;;;;;;18.36;54.89;102000.06;5072681;28;20445;-93
2022/09/01 07:56:53;;;;;;;2.60;2.00;;;;;;;18.47;55.11;101994.47;5074890;28;20103;-94
2022/09/01 07:59:20;;;;;;;2.90;2.20;;;;;;;18.56;54.67;102001.22;5074926;28;20526;-87
2022/09/01 08:01:46;;;;;;;2.42;1.77;;;;;;;18.65;55.37;101993.91;5075802;28;20047;-94
2022/09/01 08:04:11;;;;;;;2.45;1.77;;;;;;;18.78;54.86;101996.16;5543126;22;20052;-89
2022/09/01 08:06:37;;;;;;;4.17;2.40;;;;;;;18.83;53.82;101999.50;5057702;28;20447;-86
2022/09/01 08:09:05;;;;;;;2.20;2.00;;;;;;;18.92;54.20;101991.31;5053960;28;20338;-94
2022/09/01 08:11:31;;;;;;;4.93;2.80;;;;;;;18.93;53.47;101994.81;5055368;28;20041;-94
2022/09/01 08:14:01;;;;;;;2.83;2.50;;;;;;;18.94;53.31;101997.41;5055359;28;20418;-86
2022/09/01 08:16:28;;;;;;;4.38;2.60;;;;;;;19.00;53.31;102001.63;5053145;28;20036;-87
2022/09/01 08:18:53;;;;;;;4.05;2.60;;;;;;;19.09;54.01;101998.69;5054053;28;20100;-92
2022/09/01 08:21:22;;;;;;;3.03;2.40;;;;;;;19.24;53.37;101996.47;5054963;28;20053;-85
2022/09/01 08:23:49;;;;;;;4.65;2.25;;;;;;;19.37;53.48;101994.25;5052654;28;20496;-85
2022/09/01 08:26:16;;;;;;;2.72;2.08;;;;;;;19.52;53.87;101993.75;5053342;28;20082;-85
2022/09/01 08:28:42;;;;;;;1.83;1.70;;;;;;;19.73;53.46;101996.53;5053832;28;20104;-86
2022/09/01 08:31:09;;;;;;;3.43;2.13;;;;;;;19.89;52.72;101995.13;5052718;28;20163;-85
2022/09/01 08:33:38;;;;;;;3.50;2.30;;;;;;;20.00;52.39;101992.06;5053391;28;20029;-86
2022/09/01 08:36:07;;;;;;;2.05;1.80;;;;;;;20.10;52.68;101997.03;5052964;28;20492;-86
2022/09/01 08:38:33;;;;;;;2.58;2.10;;;;;;;20.26;51.50;101998.16;5052632;28;20025;-87
2022/09/01 08:41:02;;;;;;;2.05;1.95;;;;;;;20.36;52.31;102003.94;5052691;28;20033;-86
2022/09/01 08:43:54;;;;;;;2.05;1.85;;;;;;;20.54;52.02;101999.75;5053324;28;20389;-84
2022/09/01 08:46:40;;;;;;;1.88;1.77;;;;;;;20.67;52.18;101998.31;5053343;28;20111;-85
2022/09/01 08:49:13;;;;;;;2.35;1.70;;;;;;;20.81;50.42;101995.19;5045555;28;20024;-83
2022/09/01 08:51:41;;;;;;;3.70;2.00;;;;;;;20.94;50.27;101997.31;5052626;28;20154;-83
2022/09/01 08:54:21;;;;;;;2.30;2.08;;;;;;;21.02;49.31;101994.34;5052855;28;20029;-83
2022/09/01 08:56:52;;;;;;;7.32;2.80;;;;;;;20.77;49.14;101990.94;5053335;28;20053;-81
2022/09/01 08:59:18;;;;;;;2.58;2.00;;;;;;;20.89;50.58;101994.00;5052445;28;20033;-83
2022/09/01 09:02:02;;;;;;;1.80;1.70;;;;;;;21.05;51.11;101996.88;5053258;28;20082;-85
2022/09/01 09:04:59;;;;;;;2.03;1.83;;;;;;;21.27;49.84;101986.28;5052681;28;20114;-82
2022/09/01 09:07:50;;;;;;;3.67;2.33;;;;;;;21.31;48.46;101992.28;5044636;28;20437;-84
2022/09/01 09:10:36;;;;;;;2.30;1.90;;;;;;;21.41;48.14;101990.97;5053147;28;20091;-84
2022/09/01 09:13:20;;;;;;;3.63;2.40;;;;;;;21.39;48.23;101985.72;5042069;28;20083;-86
2022/09/01 09:16:11;;;;;;;3.78;2.15;;;;;;;21.44;47.93;101991.69;5052584;28;20062;-85
2022/09/01 09:18:54;;;;;;;3.58;2.50;;;;;;;21.48;47.13;101989.78;5052187;28;20037;-80
2022/09/01 09:21:21;;;;;;;3.17;2.10;;;;;;;21.63;47.38;101996.19;5053049;28;20070;-82
2022/09/01 09:23:53;;;;;;;5.38;2.10;;;;;;;21.66;47.50;101989.94;5052723;28;20068;-86
2022/09/01 09:26:19;;;;;;;2.67;2.10;;;;;;;21.68;46.67;101981.00;5051569;28;20021;-85
2022/09/01 09:28:46;;;;;;;3.13;2.13;;;;;;;21.70;46.26;101983.56;5051969;28;20044;-85
2022/09/01 09:31:41;;;;;;;3.08;2.00;;;;;;;21.89;47.21;101975.69;5052129;28;20029;-84
2022/09/01 09:34:32;;;;;;;3.08;2.03;;;;;;;22.00;46.34;101976.06;5051698;28;20507;-86
2022/09/01 09:37:15;;;;;;;4.10;2.40;;;;;;;22.00;46.08;101981.34;5053415;28;20028;-84
2022/09/01 09:39:41;;;;;;;3.35;2.20;;;;;;;22.13;45.61;101963.13;5052966;28;20025;-87
2022/09/01 09:42:09;;;;;;;3.03;2.13;;;;;;;22.26;44.94;101971.34;5052077;28;20037;-85
2022/09/01 09:44:42;;;;;;;2.22;2.03;;;;;;;22.32;45.05;101963.13;5052762;28;20388;-87
2022/09/01 09:47:09;;;;;;;3.03;2.30;;;;;;;22.27;44.87;101958.97;5052904;28;20025;-89
2022/09/01 09:49:35;;;;;;;3.67;2.05;;;;;;;22.40;44.60;101961.91;5053496;28;20427;-88
2022/09/01 09:52:00;;;;;;;1.60;1.40;;;;;;;22.63;44.38;101951.09;5053121;28;20079;-88
2022/09/01 09:54:29;;;;;;;2.07;1.60;;;;;;;22.85;44.30;101941.25;5052378;28;20057;-88
2022/09/01 09:57:12;;;;;;;1.80;1.70;;;;;;;23.07;43.62;101943.69;5051748;28;20489;-89
2022/09/01 09:59:53;;;;;;;3.38;2.13;;;;;;;23.01;40.59;101944.84;5039303;28;20030;-90
2022/09/01 10:02:36;;;;;;;2.10;1.80;;;;;;;23.24;42.36;101946.34;5045059;28;20066;-92
2022/09/01 10:05:33;;;;;;;2.53;1.65;;;;;;;23.37;41.99;101951.00;5067183;28;20044;-88
2022/09/01 10:07:59;;;;;;;3.30;1.60;;;;;;;23.48;39.88;101947.78;5078944;28;20599;-89
2022/09/01 10:10:44;;;;;;;4.60;1.87;;;;;;;23.56;41.50;101940.31;5078949;28;20028;-90
2022/09/01 10:13:16;;;;;;;2.85;1.70;;;;;;;23.64;39.72;101947.84;5077677;28;20068;-82
2022/09/01 10:15:47;;;;;;;1.58;1.48;;;;;;;23.75;39.17;101948.97;5070054;28;20025;-86
2022/09/01 10:18:17;;;;;;;1.50;1.40;;;;;;;23.85;40.04;101945.81;5078561;28;20380;-87
2022/09/01 10:21:12;;;;;;;2.08;1.33;;;;;;;24.04;39.94;101938.59;5078730;28;20031;-87
2022/09/01 10:23:37;;;;;;;1.23;1.13;;;;;;;24.16;38.25;101944.16;5061081;28;20120;-84
2022/09/01 10:26:14;;;;;;;4.73;1.60;;;;;;;24.30;38.67;101941.59;5078755;28;20553;-82
2022/09/01 10:28:53;;;;;;;2.30;1.17;;;;;;;24.34;38.85;101937.84;5078502;28;20028;-83
2022/09/01 10:31:19;;;;;;;1.40;1.30;;;;;;;24.46;39.30;101936.28;5078369;28;20107;-83
2022/09/01 10:33:45;;;;;;;1.67;1.42;;;;;;;24.62;38.21;101935.41;5078854;28;20520;-82
2022/09/01 10:36:12;;;;;;;1.98;1.50;;;;;;;24.60;36.01;101934.63;5078182;28;20409;-82
2022/09/01 10:38:38;;;;;;;2.05;1.42;;;;;;;24.63;36.54;101937.97;5078773;28;20025;-83
2022/09/01 10:41:06;;;;;;;1.60;1.50;;;;;;;24.61;35.08;101941.66;5078523;28;20036;-83
2022/09/01 10:43:40;;;;;;;1.45;1.25;;;;;;;24.58;36.05;101932.09;5077800;28;20078;-82
2022/09/01 10:46:20;;;;;;;2.20;1.40;;;;;;;24.36;34.56;101935.97;5078360;28;20483;-82
2022/09/01 10:48:51;;;;;;;2.80;1.40;;;;;;;24.38;34.71;101930.56;5069035;28;20481;-82
2022/09/01 10:51:17;;;;;;;1.88;1.30;;;;;;;24.57;33.50;101930.38;5074573;28;20033;-82
2022/09/01 10:53:47;;;;;;;2.63;1.48;;;;;;;24.64;33.80;101928.22;5078621;28;20044;-83
2022/09/01 10:56:26;;;;;;;1.50;1.40;;;;;;;24.82;35.47;101926.34;5071803;28;20036;-83
2022/09/01 10:59:23;;;;;;;4.28;1.50;;;;;;;24.82;34.42;101915.72;5076245;28;20423;-84
2022/09/01 11:01:48;;;;;;;3.05;1.60;;;;;;;25.00;34.90;101916.41;5076603;28;20029;-83
2022/09/01 11:04:17;;;;;;;1.50;1.40;;;;;;;24.95;34.05;101926.44;5076586;28;20094;-82
2022/09/01 11:07:05;;;;;;;2.35;1.45;;;;;;;24.95;34.63;101921.13;5076891;28;20422;-83
2022/09/01 11:09:42;;;;;;;3.67;1.50;;;;;;;24.96;33.63;101920.19;5074823;28;20024;-83
2022/09/01 11:12:25;;;;;;;2.42;1.33;;;;;;;24.82;32.69;101921.03;5072694;28;20024;-83
2022/09/01 11:14:55;;;;;;;2.40;1.52;;;;;;;24.99;34.17;101925.34;5075004;28;20448;-82
2022/09/01 11:17:32;;;;;;;3.08;1.73;;;;;;;24.75;33.09;101917.88;5075430;28;20494;-83
2022/09/01 11:20:09;;;;;;;2.13;1.48;;;;;;;24.92;34.25;101906.25;5072491;28;20025;-83
2022/09/01 11:22:57;;;;;;;1.30;1.20;;;;;;;25.01;33.24;101907.47;5075372;28;20020;-83
2022/09/01 11:25:31;;;;;;;1.90;1.25;;;;;;;24.98;33.12;101902.38;5075482;28;20178;-83
2022/09/01 11:28:00;;;;;;;1.92;1.35;;;;;;;25.11;33.06;101905.97;5075229;28;20108;-83
2022/09/01 11:30:57;;;;;;;1.52;1.42;;;;;;;25.32;31.94;101900.34;5075099;28;20027;-83
2022/09/01 11:33:46;;;;;;;1.40;1.30;;;;;;;25.47;32.27;101903.00;5074263;28;20115;-83
2022/09/01 11:36:20;;;;;;;1.40;1.30;;;;;;;25.47;31.67;101898.56;5074962;28;20032;-83
2022/09/01 11:38:50;;;;;;;1.60;1.17;;;;;;;25.31;32.82;101889.78;5075291;28;20025;-81
2022/09/01 11:41:31;;;;;;;2.65;1.30;;;;;;;24.90;29.92;101894.88;5077711;28;20036;-92
2022/09/01 11:43:57;;;;;;;1.95;1.48;;;;;;;25.00;31.63;101887.19;5073638;28;20029;-89